sensor_id;sensor_type;location;lat;lon;timestamp;temperature;humidity
71436;SHT31;59251;51.326;12.370;2023-05-07T00:00:29;9.52;95.83
71436;SHT31;59251;51.326;12.370;2023-05-07T00:02:54;9.52;95.54
71436;SHT31;59251;51.326;12.370;2023-05-07T00:05:20;9.35;96.07
71436;SHT31;59251;51.326;12.370;2023-05-07T00:07:46;9.36;95.99
71436;SHT31;59251;51.326;12.370;2023-05-07T00:10:11;9.45;95.57
71436;SHT31;59251;51.326;12.370;2023-05-07T00:12:38;9.47;95.46
71436;SHT31;59251;51.326;12.370;2023-05-07T00:15:03;9.50;95.15
71436;SHT31;59251;51.326;12.370;2023-05-07T00:17:29;9.53;94.74
71436;SHT31;59251;51.326;12.370;2023-05-07T00:19:55;9.49;94.66
71436;SHT31;59251;51.326;12.370;2023-05-07T00:22:20;9.45;94.46
71436;SHT31;59251;51.326;12.370;2023-05-07T00:24:46;9.43;94.45
71436;SHT31;59251;51.326;12.370;2023-05-07T00:27:12;9.49;94.37
71436;SHT31;59251;51.326;12.370;2023-05-07T00:29:37;9.39;94.43
71436;SHT31;59251;51.326;12.370;2023-05-07T00:32:02;9.53;94.09
71436;SHT31;59251;51.326;12.370;2023-05-07T00:34:28;9.57;94.01
71436;SHT31;59251;51.326;12.370;2023-05-07T00:36:53;9.59;93.79
71436;SHT31;59251;51.326;12.370;2023-05-07T00:39:18;9.62;93.30
71436;SHT31;59251;51.326;12.370;2023-05-07T00:41:44;9.63;92.93
71436;SHT31;59251;51.326;12.370;2023-05-07T00:44:10;9.69;92.78
71436;SHT31;59251;51.326;12.370;2023-05-07T00:46:35;9.62;93.10
71436;SHT31;59251;51.326;12.370;2023-05-07T00:49:01;9.65;92.98
71436;SHT31;59251;51.326;12.370;2023-05-07T00:51:26;9.62;93.30
71436;SHT31;59251;51.326;12.370;2023-05-07T00:53:53;9.59;92.72
71436;SHT31;59251;51.326;12.370;2023-05-07T00:56:20;9.57;93.07
71436;SHT31;59251;51.326;12.370;2023-05-07T00:58:46;9.56;92.98
71436;SHT31;59251;51.326;12.370;2023-05-07T01:01:12;9.57;93.24
71436;SHT31;59251;51.326;12.370;2023-05-07T01:03:37;9.50;93.36
71436;SHT31;59251;51.326;12.370;2023-05-07T01:06:04;9.63;93.06
71436;SHT31;59251;51.326;12.370;2023-05-07T01:08:30;9.47;93.30
71436;SHT31;59251;51.326;12.370;2023-05-07T01:10:57;9.52;93.61
71436;SHT31;59251;51.326;12.370;2023-05-07T01:13:23;9.26;94.26
71436;SHT31;59251;51.326;12.370;2023-05-07T01:15:49;9.35;94.27
71436;SHT31;59251;51.326;12.370;2023-05-07T01:18:14;9.43;94.01
71436;SHT31;59251;51.326;12.370;2023-05-07T01:20:40;9.40;94.02
71436;SHT31;59251;51.326;12.370;2023-05-07T01:23:06;9.43;93.85
71436;SHT31;59251;51.326;12.370;2023-05-07T01:25:32;9.34;94.24
71436;SHT31;59251;51.326;12.370;2023-05-07T01:27:57;9.22;94.55
71436;SHT31;59251;51.326;12.370;2023-05-07T01:30:25;9.34;94.42
71436;SHT31;59251;51.326;12.370;2023-05-07T01:32:56;9.28;94.48
71436;SHT31;59251;51.326;12.370;2023-05-07T01:35:29;9.36;94.01
71436;SHT31;59251;51.326;12.370;2023-05-07T01:37:56;9.28;94.64
71436;SHT31;59251;51.326;12.370;2023-05-07T01:40:22;9.29;94.61
71436;SHT31;59251;51.326;12.370;2023-05-07T01:42:48;9.31;94.50
71436;SHT31;59251;51.326;12.370;2023-05-07T01:45:13;9.34;94.32
71436;SHT31;59251;51.326;12.370;2023-05-07T01:47:39;9.29;94.49
71436;SHT31;59251;51.326;12.370;2023-05-07T01:50:05;9.35;94.35
71436;SHT31;59251;51.326;12.370;2023-05-07T01:52:31;9.32;94.30
71436;SHT31;59251;51.326;12.370;2023-05-07T01:54:56;9.43;94.12
71436;SHT31;59251;51.326;12.370;2023-05-07T01:57:22;9.38;93.97
71436;SHT31;59251;51.326;12.370;2023-05-07T01:59:47;9.34;94.16
71436;SHT31;59251;51.326;12.370;2023-05-07T02:02:13;9.43;94.07
71436;SHT31;59251;51.326;12.370;2023-05-07T02:04:38;9.40;94.35
71436;SHT31;59251;51.326;12.370;2023-05-07T02:07:03;9.39;94.32
71436;SHT31;59251;51.326;12.370;2023-05-07T02:09:29;9.36;94.31
71436;SHT31;59251;51.326;12.370;2023-05-07T02:11:54;9.32;94.42
71436;SHT31;59251;51.326;12.370;2023-05-07T02:14:19;9.24;94.77
71436;SHT31;59251;51.326;12.370;2023-05-07T02:16:45;9.19;95.05
71436;SHT31;59251;51.326;12.370;2023-05-07T02:19:11;9.29;94.67
71436;SHT31;59251;51.326;12.370;2023-05-07T02:21:36;9.19;95.17
71436;SHT31;59251;51.326;12.370;2023-05-07T02:24:01;9.24;95.08
71436;SHT31;59251;51.326;12.370;2023-05-07T02:26:27;9.22;95.32
71436;SHT31;59251;51.326;12.370;2023-05-07T02:28:52;9.28;95.10
71436;SHT31;59251;51.326;12.370;2023-05-07T02:31:19;9.38;94.83
71436;SHT31;59251;51.326;12.370;2023-05-07T02:33:44;9.28;94.89
71436;SHT31;59251;51.326;12.370;2023-05-07T02:36:11;9.40;94.85
71436;SHT31;59251;51.326;12.370;2023-05-07T02:38:37;9.40;94.13
71436;SHT31;59251;51.326;12.370;2023-05-07T02:41:02;9.56;93.51
71436;SHT31;59251;51.326;12.370;2023-05-07T02:43:28;9.43;93.84
71436;SHT31;59251;51.326;12.370;2023-05-07T02:46:07;9.46;93.95
71436;SHT31;59251;51.326;12.370;2023-05-07T02:48:33;9.38;94.03
71436;SHT31;59251;51.326;12.370;2023-05-07T02:50:59;9.39;93.93
71436;SHT31;59251;51.326;12.370;2023-05-07T02:53:25;9.45;93.95
71436;SHT31;59251;51.326;12.370;2023-05-07T02:55:58;9.28;94.40
71436;SHT31;59251;51.326;12.370;2023-05-07T02:58:24;9.17;94.68
71436;SHT31;59251;51.326;12.370;2023-05-07T03:00:49;9.18;94.64
71436;SHT31;59251;51.326;12.370;2023-05-07T03:03:15;9.15;94.75
71436;SHT31;59251;51.326;12.370;2023-05-07T03:05:41;9.21;94.57
71436;SHT31;59251;51.326;12.370;2023-05-07T03:08:07;9.22;94.57
71436;SHT31;59251;51.326;12.370;2023-05-07T03:10:33;9.19;94.72
71436;SHT31;59251;51.326;12.370;2023-05-07T03:12:58;9.10;94.94
71436;SHT31;59251;51.326;12.370;2023-05-07T03:15:23;9.22;94.75
71436;SHT31;59251;51.326;12.370;2023-05-07T03:17:49;9.19;94.59
71436;SHT31;59251;51.326;12.370;2023-05-07T03:20:14;9.18;94.70
71436;SHT31;59251;51.326;12.370;2023-05-07T03:22:40;9.25;94.38
71436;SHT31;59251;51.326;12.370;2023-05-07T03:25:06;9.12;94.88
71436;SHT31;59251;51.326;12.370;2023-05-07T03:27:31;9.19;95.02
71436;SHT31;59251;51.326;12.370;2023-05-07T03:29:56;9.15;95.09
71436;SHT31;59251;51.326;12.370;2023-05-07T03:32:22;9.32;94.42
71436;SHT31;59251;51.326;12.370;2023-05-07T03:34:47;9.24;94.60
71436;SHT31;59251;51.326;12.370;2023-05-07T03:37:12;9.18;94.91
71436;SHT31;59251;51.326;12.370;2023-05-07T03:39:38;9.21;94.80
71436;SHT31;59251;51.326;12.370;2023-05-07T03:42:03;9.26;94.45
71436;SHT31;59251;51.326;12.370;2023-05-07T03:44:28;9.40;94.22
71436;SHT31;59251;51.326;12.370;2023-05-07T03:46:54;9.47;93.72
71436;SHT31;59251;51.326;12.370;2023-05-07T03:49:20;9.38;93.78
71436;SHT31;59251;51.326;12.370;2023-05-07T03:51:46;9.32;94.26
71436;SHT31;59251;51.326;12.370;2023-05-07T03:54:11;9.36;94.09
71436;SHT31;59251;51.326;12.370;2023-05-07T03:56:36;9.40;93.63
71436;SHT31;59251;51.326;12.370;2023-05-07T03:59:02;9.34;93.83
71436;SHT31;59251;51.326;12.370;2023-05-07T04:01:27;9.40;93.82
71436;SHT31;59251;51.326;12.370;2023-05-07T04:03:53;9.49;93.52
71436;SHT31;59251;51.326;12.370;2023-05-07T04:06:18;9.65;93.03
71436;SHT31;59251;51.326;12.370;2023-05-07T04:08:43;9.67;92.97
71436;SHT31;59251;51.326;12.370;2023-05-07T04:11:09;9.77;92.44
71436;SHT31;59251;51.326;12.370;2023-05-07T04:13:34;9.57;92.84
71436;SHT31;59251;51.326;12.370;2023-05-07T04:16:02;9.63;92.86
71436;SHT31;59251;51.326;12.370;2023-05-07T04:18:28;9.53;93.03
71436;SHT31;59251;51.326;12.370;2023-05-07T04:20:53;9.52;93.10
71436;SHT31;59251;51.326;12.370;2023-05-07T04:23:19;9.36;93.49
71436;SHT31;59251;51.326;12.370;2023-05-07T04:25:44;9.47;93.19
71436;SHT31;59251;51.326;12.370;2023-05-07T04:28:10;9.46;93.24
71436;SHT31;59251;51.326;12.370;2023-05-07T04:30:36;9.52;93.11
71436;SHT31;59251;51.326;12.370;2023-05-07T04:33:01;9.57;93.07
71436;SHT31;59251;51.326;12.370;2023-05-07T04:35:27;9.65;92.61
71436;SHT31;59251;51.326;12.370;2023-05-07T04:37:52;9.59;92.65
71436;SHT31;59251;51.326;12.370;2023-05-07T04:40:18;9.72;92.61
71436;SHT31;59251;51.326;12.370;2023-05-07T04:42:43;9.82;92.36
71436;SHT31;59251;51.326;12.370;2023-05-07T04:45:09;9.72;93.12
71436;SHT31;59251;51.326;12.370;2023-05-07T04:47:35;9.59;93.28
71436;SHT31;59251;51.326;12.370;2023-05-07T04:50:01;9.67;93.04
71436;SHT31;59251;51.326;12.370;2023-05-07T04:52:26;9.72;93.11
71436;SHT31;59251;51.326;12.370;2023-05-07T04:54:51;9.66;93.26
71436;SHT31;59251;51.326;12.370;2023-05-07T04:57:17;9.76;92.97
71436;SHT31;59251;51.326;12.370;2023-05-07T04:59:43;9.49;93.27
71436;SHT31;59251;51.326;12.370;2023-05-07T05:02:10;9.52;93.33
71436;SHT31;59251;51.326;12.370;2023-05-07T05:04:36;9.53;93.22
71436;SHT31;59251;51.326;12.370;2023-05-07T05:07:02;9.60;93.29
71436;SHT31;59251;51.326;12.370;2023-05-07T05:09:31;9.73;92.98
71436;SHT31;59251;51.326;12.370;2023-05-07T05:11:56;9.49;93.00
71436;SHT31;59251;51.326;12.370;2023-05-07T05:14:21;9.77;92.48
71436;SHT31;59251;51.326;12.370;2023-05-07T05:16:47;9.67;92.39
71436;SHT31;59251;51.326;12.370;2023-05-07T05:19:12;9.66;92.44
71436;SHT31;59251;51.326;12.370;2023-05-07T05:21:37;9.70;92.32
71436;SHT31;59251;51.326;12.370;2023-05-07T05:24:03;9.52;92.91
71436;SHT31;59251;51.326;12.370;2023-05-07T05:26:28;9.72;92.39
71436;SHT31;59251;51.326;12.370;2023-05-07T05:28:54;9.53;92.52
71436;SHT31;59251;51.326;12.370;2023-05-07T05:31:19;9.65;92.43
71436;SHT31;59251;51.326;12.370;2023-05-07T05:33:44;9.63;92.36
71436;SHT31;59251;51.326;12.370;2023-05-07T05:36:10;9.67;92.35
71436;SHT31;59251;51.326;12.370;2023-05-07T05:38:37;9.93;91.56
71436;SHT31;59251;51.326;12.370;2023-05-07T05:41:02;9.94;91.26
71436;SHT31;59251;51.326;12.370;2023-05-07T05:43:28;9.94;90.91
71436;SHT31;59251;51.326;12.370;2023-05-07T05:45:54;9.90;91.02
71436;SHT31;59251;51.326;12.370;2023-05-07T05:48:20;9.74;91.35
71436;SHT31;59251;51.326;12.370;2023-05-07T05:50:45;9.80;91.42
71436;SHT31;59251;51.326;12.370;2023-05-07T05:53:11;9.82;91.15
71436;SHT31;59251;51.326;12.370;2023-05-07T05:55:36;9.82;90.99
71436;SHT31;59251;51.326;12.370;2023-05-07T05:58:02;9.80;91.27
71436;SHT31;59251;51.326;12.370;2023-05-07T06:00:27;10.00;90.48
71436;SHT31;59251;51.326;12.370;2023-05-07T06:02:53;9.86;91.40
71436;SHT31;59251;51.326;12.370;2023-05-07T06:05:18;9.95;91.26
71436;SHT31;59251;51.326;12.370;2023-05-07T06:07:43;9.86;90.80
71436;SHT31;59251;51.326;12.370;2023-05-07T06:10:09;9.93;90.66
71436;SHT31;59251;51.326;12.370;2023-05-07T06:12:34;9.83;90.78
71436;SHT31;59251;51.326;12.370;2023-05-07T06:15:00;9.90;90.87
71436;SHT31;59251;51.326;12.370;2023-05-07T06:17:25;9.90;90.67
71436;SHT31;59251;51.326;12.370;2023-05-07T06:19:51;9.95;90.65
71436;SHT31;59251;51.326;12.370;2023-05-07T06:22:16;10.03;90.30
71436;SHT31;59251;51.326;12.370;2023-05-07T06:24:41;9.98;90.53
71436;SHT31;59251;51.326;12.370;2023-05-07T06:27:07;9.94;90.36
71436;SHT31;59251;51.326;12.370;2023-05-07T06:29:32;9.93;90.26
71436;SHT31;59251;51.326;12.370;2023-05-07T06:34:33;10.08;89.67
71436;SHT31;59251;51.326;12.370;2023-05-07T06:36:58;10.04;89.42
71436;SHT31;59251;51.326;12.370;2023-05-07T06:39:23;10.04;89.52
71436;SHT31;59251;51.326;12.370;2023-05-07T06:41:49;10.22;88.94
71436;SHT31;59251;51.326;12.370;2023-05-07T06:44:14;10.27;88.88
71436;SHT31;59251;51.326;12.370;2023-05-07T06:46:41;10.32;88.50
71436;SHT31;59251;51.326;12.370;2023-05-07T06:49:06;10.49;88.02
71436;SHT31;59251;51.326;12.370;2023-05-07T06:51:31;10.30;88.62
71436;SHT31;59251;51.326;12.370;2023-05-07T06:53:57;10.20;88.76
71436;SHT31;59251;51.326;12.370;2023-05-07T06:56:22;10.35;88.20
71436;SHT31;59251;51.326;12.370;2023-05-07T06:58:48;10.38;87.92
71436;SHT31;59251;51.326;12.370;2023-05-07T07:01:13;10.24;88.04
71436;SHT31;59251;51.326;12.370;2023-05-07T07:03:39;10.24;87.93
71436;SHT31;59251;51.326;12.370;2023-05-07T07:06:05;10.37;87.69
71436;SHT31;59251;51.326;12.370;2023-05-07T07:08:30;10.25;88.03
71436;SHT31;59251;51.326;12.370;2023-05-07T07:10:55;10.22;88.33
71436;SHT31;59251;51.326;12.370;2023-05-07T07:13:21;10.42;87.34
71436;SHT31;59251;51.326;12.370;2023-05-07T07:15:46;10.49;87.25
71436;SHT31;59251;51.326;12.370;2023-05-07T07:18:12;10.73;86.19
71436;SHT31;59251;51.326;12.370;2023-05-07T07:20:37;10.56;86.45
71436;SHT31;59251;51.326;12.370;2023-05-07T07:23:02;10.59;86.28
71436;SHT31;59251;51.326;12.370;2023-05-07T07:25:28;10.72;85.95
71436;SHT31;59251;51.326;12.370;2023-05-07T07:27:53;10.80;85.14
71436;SHT31;59251;51.326;12.370;2023-05-07T07:30:18;11.03;84.77
71436;SHT31;59251;51.326;12.370;2023-05-07T07:32:44;11.13;84.03
71436;SHT31;59251;51.326;12.370;2023-05-07T07:35:09;11.16;83.37
71436;SHT31;59251;51.326;12.370;2023-05-07T07:37:35;11.04;84.13
71436;SHT31;59251;51.326;12.370;2023-05-07T07:40:00;10.96;84.19
71436;SHT31;59251;51.326;12.370;2023-05-07T07:42:26;10.96;84.03
71436;SHT31;59251;51.326;12.370;2023-05-07T07:44:52;11.06;83.61
71436;SHT31;59251;51.326;12.370;2023-05-07T07:47:17;11.04;83.31
71436;SHT31;59251;51.326;12.370;2023-05-07T07:49:42;10.77;83.74
71436;SHT31;59251;51.326;12.370;2023-05-07T07:52:08;10.86;84.01
71436;SHT31;59251;51.326;12.370;2023-05-07T07:54:33;10.86;83.91
71436;SHT31;59251;51.326;12.370;2023-05-07T07:56:58;11.21;82.95
71436;SHT31;59251;51.326;12.370;2023-05-07T07:59:24;11.28;82.82
71436;SHT31;59251;51.326;12.370;2023-05-07T08:01:50;11.44;82.21
71436;SHT31;59251;51.326;12.370;2023-05-07T08:04:17;11.32;82.54
71436;SHT31;59251;51.326;12.370;2023-05-07T08:06:42;11.04;83.20
71436;SHT31;59251;51.326;12.370;2023-05-07T08:09:08;11.01;83.29
71436;SHT31;59251;51.326;12.370;2023-05-07T08:11:33;11.09;83.24
71436;SHT31;59251;51.326;12.370;2023-05-07T08:13:59;11.04;83.05
71436;SHT31;59251;51.326;12.370;2023-05-07T08:16:24;11.01;83.21
71436;SHT31;59251;51.326;12.370;2023-05-07T08:18:50;11.10;83.01
71436;SHT31;59251;51.326;12.370;2023-05-07T08:21:15;11.30;82.61
71436;SHT31;59251;51.326;12.370;2023-05-07T08:23:41;11.11;82.78
71436;SHT31;59251;51.326;12.370;2023-05-07T08:26:07;11.11;82.15
71436;SHT31;59251;51.326;12.370;2023-05-07T08:28:33;11.11;82.46
71436;SHT31;59251;51.326;12.370;2023-05-07T08:30:58;11.23;81.98
71436;SHT31;59251;51.326;12.370;2023-05-07T08:33:26;11.09;82.23
71436;SHT31;59251;51.326;12.370;2023-05-07T08:35:51;11.24;81.56
71436;SHT31;59251;51.326;12.370;2023-05-07T08:38:17;11.16;82.02
71436;SHT31;59251;51.326;12.370;2023-05-07T08:40:42;11.10;82.18
71436;SHT31;59251;51.326;12.370;2023-05-07T08:43:08;11.26;81.75
71436;SHT31;59251;51.326;12.370;2023-05-07T08:45:34;11.28;81.81
71436;SHT31;59251;51.326;12.370;2023-05-07T08:48:02;11.23;81.77
71436;SHT31;59251;51.326;12.370;2023-05-07T08:50:28;11.41;81.31
71436;SHT31;59251;51.326;12.370;2023-05-07T08:52:54;11.68;80.36
71436;SHT31;59251;51.326;12.370;2023-05-07T08:55:22;11.26;80.43
71436;SHT31;59251;51.326;12.370;2023-05-07T08:57:48;11.28;81.21
71436;SHT31;59251;51.326;12.370;2023-05-07T09:00:14;11.41;81.04
71436;SHT31;59251;51.326;12.370;2023-05-07T09:02:39;11.38;81.17
71436;SHT31;59251;51.326;12.370;2023-05-07T09:05:05;11.50;80.66
71436;SHT31;59251;51.326;12.370;2023-05-07T09:07:31;11.64;80.14
71436;SHT31;59251;51.326;12.370;2023-05-07T09:09:56;11.78;79.98
71436;SHT31;59251;51.326;12.370;2023-05-07T09:12:25;11.86;79.31
71436;SHT31;59251;51.326;12.370;2023-05-07T09:14:50;11.42;80.56
71436;SHT31;59251;51.326;12.370;2023-05-07T09:17:16;11.52;80.26
71436;SHT31;59251;51.326;12.370;2023-05-07T09:19:44;11.38;80.89
71436;SHT31;59251;51.326;12.370;2023-05-07T09:22:10;11.48;80.57
71436;SHT31;59251;51.326;12.370;2023-05-07T09:24:36;11.37;80.40
71436;SHT31;59251;51.326;12.370;2023-05-07T09:27:04;11.39;80.27
71436;SHT31;59251;51.326;12.370;2023-05-07T09:29:29;11.42;80.57
71436;SHT31;59251;51.326;12.370;2023-05-07T09:32:02;11.44;80.52
71436;SHT31;59251;51.326;12.370;2023-05-07T09:34:29;11.37;80.59
71436;SHT31;59251;51.326;12.370;2023-05-07T09:36:55;11.30;81.05
71436;SHT31;59251;51.326;12.370;2023-05-07T09:39:22;11.13;81.52
71436;SHT31;59251;51.326;12.370;2023-05-07T09:41:48;11.47;80.86
71436;SHT31;59251;51.326;12.370;2023-05-07T09:44:20;11.62;80.42
71436;SHT31;59251;51.326;12.370;2023-05-07T09:46:47;11.61;80.38
71436;SHT31;59251;51.326;12.370;2023-05-07T09:49:22;11.50;80.72
71436;SHT31;59251;51.326;12.370;2023-05-07T09:51:50;11.64;80.39
71436;SHT31;59251;51.326;12.370;2023-05-07T09:54:17;11.66;80.33
71436;SHT31;59251;51.326;12.370;2023-05-07T09:56:48;11.52;80.04
71436;SHT31;59251;51.326;12.370;2023-05-07T09:59:15;11.66;80.49
71436;SHT31;59251;51.326;12.370;2023-05-07T10:01:42;11.81;80.11
71436;SHT31;59251;51.326;12.370;2023-05-07T10:04:08;11.79;80.07
71436;SHT31;59251;51.326;12.370;2023-05-07T10:06:35;11.83;79.73
71436;SHT31;59251;51.326;12.370;2023-05-07T10:09:01;11.76;80.48
71436;SHT31;59251;51.326;12.370;2023-05-07T10:11:27;12.03;79.55
71436;SHT31;59251;51.326;12.370;2023-05-07T10:13:53;12.06;79.27
71436;SHT31;59251;51.326;12.370;2023-05-07T10:16:19;11.85;79.57
71436;SHT31;59251;51.326;12.370;2023-05-07T10:18:46;11.72;80.10
71436;SHT31;59251;51.326;12.370;2023-05-07T10:21:18;11.82;79.95
71436;SHT31;59251;51.326;12.370;2023-05-07T10:26:23;12.02;79.77
71436;SHT31;59251;51.326;12.370;2023-05-07T10:28:54;12.05;78.90
71436;SHT31;59251;51.326;12.370;2023-05-07T10:31:37;12.32;78.53
71436;SHT31;59251;51.326;12.370;2023-05-07T10:34:11;11.87;79.52
71436;SHT31;59251;51.326;12.370;2023-05-07T10:36:38;12.14;78.78
71436;SHT31;59251;51.326;12.370;2023-05-07T10:39:05;11.99;79.24
71436;SHT31;59251;51.326;12.370;2023-05-07T10:41:31;11.83;79.65
71436;SHT31;59251;51.326;12.370;2023-05-07T10:43:57;11.62;80.12
71436;SHT31;59251;51.326;12.370;2023-05-07T10:46:22;11.82;79.93
71436;SHT31;59251;51.326;12.370;2023-05-07T10:51:26;11.87;79.62
71436;SHT31;59251;51.326;12.370;2023-05-07T10:56:42;12.36;77.90
71436;SHT31;59251;51.326;12.370;2023-05-07T11:02:04;12.45;77.86
71436;SHT31;59251;51.326;12.370;2023-05-07T11:04:32;12.29;78.73
71436;SHT31;59251;51.326;12.370;2023-05-07T11:15:09;12.09;79.89
71436;SHT31;59251;51.326;12.370;2023-05-07T11:17:35;12.13;79.41
71436;SHT31;59251;51.326;12.370;2023-05-07T11:20:17;12.80;77.11
71436;SHT31;59251;51.326;12.370;2023-05-07T11:22:42;12.47;76.79
71436;SHT31;59251;51.326;12.370;2023-05-07T11:25:08;12.81;76.47
71436;SHT31;59251;51.326;12.370;2023-05-07T11:27:33;12.92;75.89
71436;SHT31;59251;51.326;12.370;2023-05-07T11:29:59;13.06;75.14
71436;SHT31;59251;51.326;12.370;2023-05-07T11:32:28;13.15;75.04
71436;SHT31;59251;51.326;12.370;2023-05-07T11:34:55;13.49;74.27
71436;SHT31;59251;51.326;12.370;2023-05-07T11:37:21;13.13;75.28
71436;SHT31;59251;51.326;12.370;2023-05-07T11:39:46;13.19;75.61
71436;SHT31;59251;51.326;12.370;2023-05-07T11:42:27;13.13;75.81
71436;SHT31;59251;51.326;12.370;2023-05-07T11:44:52;13.23;75.57
71436;SHT31;59251;51.326;12.370;2023-05-07T11:47:18;12.91;75.99
71436;SHT31;59251;51.326;12.370;2023-05-07T11:49:49;12.98;75.58
71436;SHT31;59251;51.326;12.370;2023-05-07T11:52:16;13.26;75.47
71436;SHT31;59251;51.326;12.370;2023-05-07T11:54:55;12.95;76.19
71436;SHT31;59251;51.326;12.370;2023-05-07T11:57:22;13.09;75.99
71436;SHT31;59251;51.326;12.370;2023-05-07T11:59:47;12.84;76.29
71436;SHT31;59251;51.326;12.370;2023-05-07T12:02:14;12.50;77.19
71436;SHT31;59251;51.326;12.370;2023-05-07T12:04:40;12.43;77.70
71436;SHT31;59251;51.326;12.370;2023-05-07T12:07:11;12.58;77.86
71436;SHT31;59251;51.326;12.370;2023-05-07T12:09:37;12.67;77.35
71436;SHT31;59251;51.326;12.370;2023-05-07T12:12:04;12.69;76.93
71436;SHT31;59251;51.326;12.370;2023-05-07T12:14:29;12.80;77.04
71436;SHT31;59251;51.326;12.370;2023-05-07T12:16:55;12.37;77.21
71436;SHT31;59251;51.326;12.370;2023-05-07T12:19:21;12.51;77.12
71436;SHT31;59251;51.326;12.370;2023-05-07T12:21:46;12.85;76.39
71436;SHT31;59251;51.326;12.370;2023-05-07T12:24:14;13.24;75.16
71436;SHT31;59251;51.326;12.370;2023-05-07T12:26:40;13.46;73.98
71436;SHT31;59251;51.326;12.370;2023-05-07T12:29:06;13.24;74.09
71436;SHT31;59251;51.326;12.370;2023-05-07T12:31:32;13.75;72.52
71436;SHT31;59251;51.326;12.370;2023-05-07T12:33:57;13.58;72.48
71436;SHT31;59251;51.326;12.370;2023-05-07T12:36:22;13.46;72.16
71436;SHT31;59251;51.326;12.370;2023-05-07T12:38:49;14.04;70.19
71436;SHT31;59251;51.326;12.370;2023-05-07T12:41:15;14.22;71.17
71436;SHT31;59251;51.326;12.370;2023-05-07T12:43:44;13.81;72.08
71436;SHT31;59251;51.326;12.370;2023-05-07T12:46:09;13.57;74.26
71436;SHT31;59251;51.326;12.370;2023-05-07T12:48:38;13.35;74.55
71436;SHT31;59251;51.326;12.370;2023-05-07T12:51:05;13.70;73.83
71436;SHT31;59251;51.326;12.370;2023-05-07T12:53:31;13.98;72.57
71436;SHT31;59251;51.326;12.370;2023-05-07T12:55:58;14.70;70.05
71436;SHT31;59251;51.326;12.370;2023-05-07T12:58:32;14.32;70.81
71436;SHT31;59251;51.326;12.370;2023-05-07T13:01:00;14.45;69.72
71436;SHT31;59251;51.326;12.370;2023-05-07T13:03:28;13.79;71.50
71436;SHT31;59251;51.326;12.370;2023-05-07T13:06:05;13.91;71.31
71436;SHT31;59251;51.326;12.370;2023-05-07T13:08:31;13.79;71.44
71436;SHT31;59251;51.326;12.370;2023-05-07T13:10:58;13.74;71.65
71436;SHT31;59251;51.326;12.370;2023-05-07T13:13:25;14.06;70.54
71436;SHT31;59251;51.326;12.370;2023-05-07T13:15:50;15.83;66.19
71436;SHT31;59251;51.326;12.370;2023-05-07T13:18:15;15.42;65.83
71436;SHT31;59251;51.326;12.370;2023-05-07T13:20:41;14.98;67.23
71436;SHT31;59251;51.326;12.370;2023-05-07T13:23:07;16.18;65.06
71436;SHT31;59251;51.326;12.370;2023-05-07T13:25:32;15.90;64.57
71436;SHT31;59251;51.326;12.370;2023-05-07T13:27:57;15.07;67.96
71436;SHT31;59251;51.326;12.370;2023-05-07T13:30:23;14.56;68.87
71436;SHT31;59251;51.326;12.370;2023-05-07T13:32:48;14.90;69.17
71436;SHT31;59251;51.326;12.370;2023-05-07T13:35:15;14.91;69.52
71436;SHT31;59251;51.326;12.370;2023-05-07T13:37:40;15.22;68.20
71436;SHT31;59251;51.326;12.370;2023-05-07T13:40:06;15.14;68.35
71436;SHT31;59251;51.326;12.370;2023-05-07T13:42:31;14.67;68.51
71436;SHT31;59251;51.326;12.370;2023-05-07T13:44:57;14.43;69.22
71436;SHT31;59251;51.326;12.370;2023-05-07T13:47:22;14.67;69.43
71436;SHT31;59251;51.326;12.370;2023-05-07T13:49:47;15.04;68.81
71436;SHT31;59251;51.326;12.370;2023-05-07T13:52:15;14.60;70.08
71436;SHT31;59251;51.326;12.370;2023-05-07T13:54:41;15.01;68.83
71436;SHT31;59251;51.326;12.370;2023-05-07T13:57:06;14.97;69.05
71436;SHT31;59251;51.326;12.370;2023-05-07T13:59:32;15.01;69.30
71436;SHT31;59251;51.326;12.370;2023-05-07T14:01:58;14.77;69.58
71436;SHT31;59251;51.326;12.370;2023-05-07T14:04:23;14.28;70.46
71436;SHT31;59251;51.326;12.370;2023-05-07T14:06:48;14.66;69.62
71436;SHT31;59251;51.326;12.370;2023-05-07T14:09:14;14.43;70.26
71436;SHT31;59251;51.326;12.370;2023-05-07T14:11:39;14.50;70.06
71436;SHT31;59251;51.326;12.370;2023-05-07T14:14:05;14.66;69.93
71436;SHT31;59251;51.326;12.370;2023-05-07T14:16:30;15.24;68.58
71436;SHT31;59251;51.326;12.370;2023-05-07T14:18:56;14.90;69.01
71436;SHT31;59251;51.326;12.370;2023-05-07T14:21:21;14.87;69.18
71436;SHT31;59251;51.326;12.370;2023-05-07T14:23:46;14.69;69.77
71436;SHT31;59251;51.326;12.370;2023-05-07T14:26:12;15.42;68.15
71436;SHT31;59251;51.326;12.370;2023-05-07T14:28:38;15.43;67.88
71436;SHT31;59251;51.326;12.370;2023-05-07T14:31:04;15.02;69.02
71436;SHT31;59251;51.326;12.370;2023-05-07T14:33:31;14.56;69.30
71436;SHT31;59251;51.326;12.370;2023-05-07T14:35:57;14.90;69.14
71436;SHT31;59251;51.326;12.370;2023-05-07T14:38:22;14.91;69.09
71436;SHT31;59251;51.326;12.370;2023-05-07T14:40:48;15.39;67.65
71436;SHT31;59251;51.326;12.370;2023-05-07T14:43:13;15.07;67.73
71436;SHT31;59251;51.326;12.370;2023-05-07T14:45:38;14.74;68.95
71436;SHT31;59251;51.326;12.370;2023-05-07T14:48:04;15.02;68.80
71436;SHT31;59251;51.326;12.370;2023-05-07T14:50:30;15.04;69.02
71436;SHT31;59251;51.326;12.370;2023-05-07T14:52:55;15.63;67.20
71436;SHT31;59251;51.326;12.370;2023-05-07T14:55:20;16.21;65.01
71436;SHT31;59251;51.326;12.370;2023-05-07T14:57:46;16.25;65.06
71436;SHT31;59251;51.326;12.370;2023-05-07T15:00:11;15.98;65.20
71436;SHT31;59251;51.326;12.370;2023-05-07T15:02:38;16.18;65.45
71436;SHT31;59251;51.326;12.370;2023-05-07T15:05:03;15.91;65.84
71436;SHT31;59251;51.326;12.370;2023-05-07T15:07:29;15.45;67.12
71436;SHT31;59251;51.326;12.370;2023-05-07T15:09:54;15.00;67.78
71436;SHT31;59251;51.326;12.370;2023-05-07T15:12:20;15.14;67.92
71436;SHT31;59251;51.326;12.370;2023-05-07T15:14:45;15.14;67.83
71436;SHT31;59251;51.326;12.370;2023-05-07T15:17:11;14.85;68.43
71436;SHT31;59251;51.326;12.370;2023-05-07T15:19:36;14.95;68.35
71436;SHT31;59251;51.326;12.370;2023-05-07T15:22:01;14.69;68.90
71436;SHT31;59251;51.326;12.370;2023-05-07T15:24:31;14.87;68.81
71436;SHT31;59251;51.326;12.370;2023-05-07T15:26:56;14.72;68.80
71436;SHT31;59251;51.326;12.370;2023-05-07T15:29:23;14.39;70.22
71436;SHT31;59251;51.326;12.370;2023-05-07T15:31:48;14.14;70.54
71436;SHT31;59251;51.326;12.370;2023-05-07T15:34:14;14.33;70.57
71436;SHT31;59251;51.326;12.370;2023-05-07T15:36:40;14.29;70.76